Terminal Aerodrome Forecast
Issued by NWS

Home | Current Version | Previous Version | Text Only | Print | Product List | Glossary On
Versions: 1 2 3 4 5 6 7 8 9 10 11 12 13 14 15 16 17 18 19 20 21 22 23 24 25 26 27 28 29 30 31 32 33 34 35 36 37 38 39 40 41 42 43 44 45 46 47 48 49 50
000
FTUS44 KHGX 301720
TAFCXO
TAF
KCXO 301720Z 3018/0118 15006KT P6SM FEW250
     FM010300 VRB04KT P6SM SCT015
     FM010900 03005KT 4SM BR SCT007 BKN015
     FM011500 09004KT P6SM BKN025=

USA.gov is the U.S. government's official web portal to all federal, state and local government web resources and services.